Newportville, Pennsylvania
Current Conditions -  °F | °C
As of 6:54 AM on Friday 24 Oct 2014 (Local Time) from KPNE Reporting Station
Broken Clouds Broken Clouds  
Wind Chill: 55°   Ceiling: 3200
Heat Index: 55°   Visibility: 10mi
Dew Point: 43°   Wind: 6mph
Humidity: 64%   Direction: 320°NW
Pressure: 29.85"   Gusts: NA
Location:  40.1547°N, 74.8824°W
Report Text: KPNE 241054Z 32005KT 10SM BKN032 13/06 A2985 RMK AO2 SLP107 T01280061 $
Loading
Personal Weather Stations






























Interactive Weather Map
Tropical Storm Tracking
New forecast layout! Learn more

10-Day Weather Forecast

Advertisements
Track Severe Weather on mobile